createdAt,value
2022-09-15T00:01:03.076Z,24.87
2022-09-15T00:03:30.320Z,24.91
2022-09-15T00:05:57.492Z,24.93
2022-09-15T00:08:25.439Z,24.89
2022-09-15T00:10:58.541Z,24.90
2022-09-15T00:13:26.023Z,24.85
2022-09-15T00:15:53.638Z,24.78
2022-09-15T00:18:21.461Z,24.74
2022-09-15T00:20:48.664Z,24.66
2022-09-15T00:23:16.839Z,24.58
2022-09-15T00:25:53.588Z,24.53
2022-09-15T00:28:22.233Z,24.47
2022-09-15T00:30:53.039Z,24.37
2022-09-15T00:33:22.007Z,24.37
2022-09-15T00:35:51.200Z,24.25
2022-09-15T00:38:19.412Z,24.22
2022-09-15T00:40:52.321Z,24.17
2022-09-15T00:43:54.128Z,24.22
2022-09-15T00:46:24.825Z,24.20
2022-09-15T00:48:57.483Z,24.19
2022-09-15T00:51:53.558Z,24.19
2022-09-15T00:54:53.787Z,24.19
2022-09-15T00:57:23.763Z,24.19
2022-09-15T00:59:53.243Z,24.20
2022-09-15T01:02:25.920Z,24.25
2022-09-15T01:04:58.132Z,24.27
2022-09-15T01:07:32.300Z,24.31
2022-09-15T01:10:04.704Z,24.30
2022-09-15T01:12:32.488Z,24.20
2022-09-15T01:15:02.790Z,24.17
2022-09-15T01:17:40.428Z,24.16
2022-09-15T01:20:37.903Z,24.21
2022-09-15T01:23:24.467Z,24.23
2022-09-15T01:26:03.706Z,24.18
2022-09-15T01:28:49.549Z,24.14
2022-09-15T01:32:03.844Z,24.12
2022-09-15T01:34:41.707Z,24.11
2022-09-15T01:37:17.883Z,24.23
2022-09-15T01:39:48.109Z,24.32
2022-09-15T01:42:16.755Z,24.29
2022-09-15T01:44:55.840Z,24.29
2022-09-15T01:47:25.915Z,24.24
2022-09-15T01:50:00.479Z,24.19
2022-09-15T01:52:29.163Z,24.08
2022-09-15T01:55:00.493Z,24.03
2022-09-15T01:57:28.117Z,23.95
2022-09-15T01:59:56.546Z,23.87
2022-09-15T02:02:33.267Z,23.90
2022-09-15T02:05:13.569Z,23.96
2022-09-15T02:08:05.357Z,23.95
2022-09-15T02:11:00.805Z,23.97
2022-09-15T02:14:21.878Z,23.99
2022-09-15T02:16:52.693Z,23.98
2022-09-15T02:19:31.927Z,23.95
2022-09-15T02:22:28.769Z,23.95
2022-09-15T02:25:09.768Z,23.93
2022-09-15T02:27:47.200Z,23.93
2022-09-15T02:30:16.719Z,23.94
2022-09-15T02:32:59.340Z,23.86
2022-09-15T02:35:29.894Z,23.84
2022-09-15T02:37:58.799Z,23.78
2022-09-15T02:40:29.122Z,23.66
2022-09-15T02:43:01.060Z,23.61
2022-09-15T02:45:31.083Z,23.52
2022-09-15T02:47:59.183Z,23.47
2022-09-15T02:50:26.922Z,23.47
2022-09-15T02:52:55.661Z,23.39
2022-09-15T02:55:24.188Z,23.30
2022-09-15T02:57:51.384Z,23.19
2022-09-15T03:00:19.377Z,23.21
2022-09-15T03:02:50.227Z,23.16
2022-09-15T03:05:20.343Z,23.12
2022-09-15T03:07:48.091Z,23.13
2022-09-15T03:10:16.164Z,23.09
2022-09-15T03:12:45.843Z,23.09
2022-09-15T03:15:15.593Z,23.04
2022-09-15T03:17:44.025Z,22.97
2022-09-15T03:20:15.015Z,22.90
2022-09-15T03:22:42.610Z,22.92
2022-09-15T03:25:11.280Z,22.96
2022-09-15T03:27:38.544Z,22.87
2022-09-15T03:30:07.184Z,22.87
2022-09-15T03:32:34.608Z,22.89
2022-09-15T03:35:02.054Z,22.88
2022-09-15T03:37:29.319Z,22.89
2022-09-15T03:39:56.852Z,22.93
2022-09-15T03:42:24.216Z,22.94
2022-09-15T03:44:51.398Z,22.92
2022-09-15T03:47:18.572Z,22.93
2022-09-15T03:49:45.780Z,22.92
2022-09-15T03:52:12.960Z,22.89
2022-09-15T03:54:40.125Z,22.80
2022-09-15T03:57:07.328Z,22.73
2022-09-15T03:59:34.615Z,22.71
2022-09-15T04:02:01.902Z,22.67
2022-09-15T04:04:29.179Z,22.70
2022-09-15T04:06:56.374Z,22.64
2022-09-15T04:09:24.833Z,22.60
2022-09-15T04:11:52.091Z,22.64
2022-09-15T04:14:19.259Z,22.55
2022-09-15T04:16:46.679Z,22.63
2022-09-15T04:19:14.383Z,22.56
2022-09-15T04:21:41.627Z,22.55
2022-09-15T04:24:08.848Z,22.53
2022-09-15T04:26:37.501Z,22.54
2022-09-15T04:29:11.539Z,22.56
2022-09-15T04:31:40.174Z,22.55
2022-09-15T04:34:07.479Z,22.57
2022-09-15T04:36:34.822Z,22.56
2022-09-15T04:39:02.107Z,22.57
2022-09-15T04:41:29.399Z,22.57
2022-09-15T04:43:56.648Z,22.56
2022-09-15T04:46:23.951Z,22.60
2022-09-15T04:48:52.330Z,22.57
2022-09-15T04:51:22.041Z,22.59
2022-09-15T04:53:50.321Z,22.60
2022-09-15T04:56:21.184Z,22.56
2022-09-15T04:58:51.892Z,22.48
2022-09-15T05:01:21.904Z,22.54
2022-09-15T05:03:49.815Z,22.59
2022-09-15T05:06:21.231Z,22.64
2022-09-15T05:08:53.782Z,22.62
2022-09-15T05:11:21.931Z,22.63
2022-09-15T05:13:49.728Z,22.60
2022-09-15T05:16:25.616Z,22.63
2022-09-15T05:18:54.899Z,22.65
2022-09-15T05:21:23.648Z,22.64
2022-09-15T05:23:52.003Z,22.64
2022-09-15T05:26:22.000Z,22.68
2022-09-15T05:28:50.097Z,22.68
2022-09-15T05:31:19.666Z,22.72
2022-09-15T05:33:48.953Z,22.77
2022-09-15T05:36:17.433Z,22.80
2022-09-15T05:38:45.192Z,22.85
2022-09-15T05:41:16.089Z,22.87
2022-09-15T05:43:46.142Z,22.89
2022-09-15T05:46:14.457Z,22.87
2022-09-15T05:48:42.303Z,22.87
2022-09-15T05:51:09.591Z,22.87
2022-09-15T05:53:37.485Z,22.89
2022-09-15T05:56:08.236Z,22.89
2022-09-15T05:58:35.668Z,22.92
2022-09-15T06:01:06.948Z,23.36
2022-09-15T06:03:35.578Z,23.92
2022-09-15T06:06:05.005Z,23.97
2022-09-15T06:08:34.653Z,23.63
2022-09-15T06:11:12.746Z,23.62
2022-09-15T06:13:40.280Z,23.73
2022-09-15T06:16:12.783Z,23.72
2022-09-15T06:18:41.332Z,23.73
2022-09-15T06:21:11.072Z,24.06
2022-09-15T06:23:38.908Z,24.11
2022-09-15T06:26:06.364Z,24.24
2022-09-15T06:28:33.888Z,24.29
2022-09-15T06:31:01.231Z,24.37
2022-09-15T06:33:31.562Z,24.43
2022-09-15T06:36:01.139Z,24.50
2022-09-15T06:38:28.530Z,24.54
2022-09-15T06:40:57.613Z,24.61
2022-09-15T06:43:26.040Z,24.64
2022-09-15T06:45:53.314Z,24.66
2022-09-15T06:48:24.868Z,24.72
2022-09-15T06:50:56.006Z,24.72
2022-09-15T06:53:23.361Z,24.75
2022-09-15T06:55:50.543Z,24.81
2022-09-15T06:58:17.723Z,24.93
2022-09-15T07:00:44.979Z,24.93
2022-09-15T07:03:12.457Z,24.89
2022-09-15T07:05:40.877Z,24.93
2022-09-15T07:08:08.112Z,24.96
2022-09-15T07:10:35.331Z,24.97
2022-09-15T07:13:03.257Z,25.01
2022-09-15T07:15:31.425Z,25.02
2022-09-15T07:17:59.323Z,25.03
2022-09-15T07:20:27.366Z,25.03
2022-09-15T07:22:54.608Z,25.05
2022-09-15T07:25:21.804Z,25.05
2022-09-15T07:27:48.989Z,24.98
2022-09-15T07:30:16.212Z,24.88
2022-09-15T07:32:44.276Z,24.76
2022-09-15T07:35:11.602Z,24.63
2022-09-15T07:37:38.879Z,24.58
2022-09-15T07:40:07.283Z,24.52
2022-09-15T07:42:35.701Z,24.64
2022-09-15T07:45:08.922Z,24.77
2022-09-15T07:47:36.174Z,24.76
2022-09-15T07:50:05.932Z,24.80
2022-09-15T07:52:33.148Z,24.73
2022-09-15T07:55:00.415Z,24.73
2022-09-15T07:57:27.751Z,24.80
2022-09-15T07:59:54.980Z,24.87
2022-09-15T08:02:22.290Z,24.90
2022-09-15T08:04:49.704Z,24.91
2022-09-15T08:07:17.089Z,24.97
2022-09-15T08:09:44.328Z,25.04
2022-09-15T08:12:12.228Z,25.09
2022-09-15T08:14:39.771Z,25.14
2022-09-15T08:17:11.255Z,25.17
2022-09-15T08:19:38.778Z,25.21
2022-09-15T08:22:06.164Z,25.26
2022-09-15T08:24:33.554Z,25.25
2022-09-15T08:27:00.730Z,25.17
2022-09-15T08:29:29.140Z,25.22
2022-09-15T08:31:56.367Z,25.16
2022-09-15T08:34:23.720Z,25.15
2022-09-15T08:36:50.921Z,25.08
2022-09-15T08:39:18.100Z,25.15
2022-09-15T08:41:48.313Z,25.11
2022-09-15T08:44:16.077Z,25.12
2022-09-15T08:46:52.220Z,25.12
2022-09-15T08:49:57.927Z,25.14
2022-09-15T08:52:34.584Z,25.08
2022-09-15T08:55:09.315Z,25.07
2022-09-15T08:57:36.771Z,25.19
2022-09-15T09:00:04.509Z,25.22
2022-09-15T09:02:40.448Z,25.33
2022-09-15T09:05:29.582Z,25.39
2022-09-15T09:08:15.884Z,25.44
2022-09-15T09:10:53.472Z,25.36
2022-09-15T09:13:43.204Z,25.39
2022-09-15T09:16:31.972Z,25.49
2022-09-15T09:19:03.705Z,25.57
2022-09-15T09:21:36.331Z,25.66
2022-09-15T09:24:17.860Z,25.66
2022-09-15T09:26:51.672Z,25.67
2022-09-15T09:29:26.728Z,25.77
2022-09-15T09:31:55.781Z,25.88
2022-09-15T09:34:43.149Z,26.00
2022-09-15T09:37:14.123Z,26.12
2022-09-15T09:39:42.559Z,26.17
2022-09-15T09:42:15.247Z,26.34
2022-09-15T09:44:42.707Z,26.45
2022-09-15T09:47:10.426Z,26.52
2022-09-15T09:49:46.789Z,26.59
2022-09-15T09:52:31.575Z,26.65
2022-09-15T09:55:20.769Z,26.63
2022-09-15T09:57:48.009Z,26.59
2022-09-15T10:00:38.430Z,26.59
2022-09-15T10:03:17.922Z,26.49
2022-09-15T10:05:59.532Z,26.48
2022-09-15T10:08:26.983Z,26.48
2022-09-15T10:10:59.622Z,26.44
2022-09-15T10:13:26.883Z,26.44
2022-09-15T10:16:00.908Z,26.41
2022-09-15T10:18:30.143Z,26.33
2022-09-15T10:20:57.939Z,26.27
2022-09-15T10:23:28.499Z,26.29
2022-09-15T10:26:17.323Z,26.32
2022-09-15T10:29:04.683Z,26.41
2022-09-15T10:31:33.320Z,26.58
2022-09-15T10:34:30.628Z,26.73
2022-09-15T10:37:36.131Z,26.88
2022-09-15T10:40:21.278Z,26.99
2022-09-15T10:42:53.881Z,27.10
2022-09-15T10:45:26.502Z,27.21
2022-09-15T10:48:25.724Z,27.26
2022-09-15T10:50:59.390Z,27.36
2022-09-15T10:53:38.498Z,27.54
2022-09-15T10:56:11.531Z,27.63
2022-09-15T10:59:03.705Z,27.65
2022-09-15T11:01:30.895Z,27.72
2022-09-15T11:04:11.573Z,27.82
2022-09-15T11:06:47.740Z,27.79
2022-09-15T11:09:25.773Z,27.76
2022-09-15T11:12:05.328Z,27.73
2022-09-15T11:14:57.917Z,27.53
2022-09-15T11:17:43.587Z,27.51
2022-09-15T11:20:44.027Z,27.39
2022-09-15T11:23:11.482Z,27.34
2022-09-15T11:25:49.558Z,27.27
2022-09-15T11:28:28.903Z,27.19
2022-09-15T11:31:22.277Z,27.10
2022-09-15T11:33:55.473Z,27.09
2022-09-15T11:36:35.555Z,27.00
2022-09-15T11:39:29.477Z,26.94
2022-09-15T11:42:07.392Z,26.78
2022-09-15T11:44:34.558Z,26.70
2022-09-15T11:47:39.000Z,26.63
2022-09-15T11:50:21.084Z,26.58
2022-09-15T11:53:05.590Z,26.57
2022-09-15T11:55:55.134Z,26.50
2022-09-15T11:58:34.430Z,26.50
2022-09-15T12:01:07.491Z,26.44
2022-09-15T12:03:44.606Z,26.29
2022-09-15T12:06:21.516Z,26.25
2022-09-15T12:08:51.460Z,26.15
2022-09-15T12:11:26.115Z,26.01
2022-09-15T12:13:55.261Z,26.06
2022-09-15T12:16:24.223Z,25.94
2022-09-15T12:19:14.536Z,25.80
2022-09-15T12:21:54.426Z,25.79
2022-09-15T12:24:43.952Z,25.39
2022-09-15T12:27:21.601Z,24.89
2022-09-15T12:29:56.215Z,24.79
2022-09-15T12:32:32.035Z,24.51
2022-09-15T12:35:20.360Z,24.45
2022-09-15T12:37:53.317Z,24.48
2022-09-15T12:40:37.572Z,24.36
2022-09-15T12:43:10.963Z,24.49
2022-09-15T12:45:39.536Z,24.31
2022-09-15T12:48:18.765Z,24.05
2022-09-15T12:51:02.120Z,23.95
2022-09-15T12:53:31.333Z,23.89
2022-09-15T12:56:01.883Z,23.62
2022-09-15T12:58:37.605Z,23.35
2022-09-15T13:01:23.335Z,23.39
2022-09-15T13:03:50.874Z,23.59
2022-09-15T13:06:30.779Z,23.69
2022-09-15T13:09:06.636Z,23.62
2022-09-15T13:11:39.435Z,23.70
2022-09-15T13:14:21.119Z,23.83
2022-09-15T13:16:52.201Z,23.74
2022-09-15T13:19:43.984Z,23.78
2022-09-15T13:22:11.104Z,23.91
2022-09-15T13:24:59.217Z,24.17
2022-09-15T13:27:38.312Z,24.10
2022-09-15T13:30:20.665Z,23.95
2022-09-15T13:33:12.111Z,24.16
2022-09-15T13:35:57.750Z,24.19
2022-09-15T13:38:51.959Z,24.23
2022-09-15T13:41:53.927Z,24.22
2022-09-15T13:44:42.268Z,24.11
2022-09-15T13:47:36.504Z,24.19
2022-09-15T13:50:04.235Z,24.18
2022-09-15T13:53:02.512Z,24.29
2022-09-15T13:55:36.825Z,24.19
2022-09-15T14:00:55.069Z,24.21
2022-09-15T14:03:51.248Z,24.10
2022-09-15T14:06:25.916Z,23.92
2022-09-15T14:08:57.283Z,23.69
2022-09-15T14:11:35.547Z,23.55
2022-09-15T14:14:29.660Z,23.52
2022-09-15T14:16:57.538Z,23.49
2022-09-15T14:19:35.751Z,23.44
2022-09-15T14:22:27.386Z,23.49
2022-09-15T14:24:57.277Z,23.40
2022-09-15T14:27:30.568Z,23.41
2022-09-15T14:30:01.519Z,23.40
2022-09-15T14:32:31.871Z,23.29
2022-09-15T14:35:03.950Z,23.82
2022-09-15T14:37:34.782Z,24.16
2022-09-15T14:40:18.387Z,23.81
2022-09-15T14:42:45.763Z,23.57
2022-09-15T14:48:15.868Z,23.37
2022-09-15T14:50:54.287Z,23.33
2022-09-15T14:53:24.704Z,23.37
2022-09-15T14:55:57.682Z,23.80
2022-09-15T14:58:36.896Z,23.89
2022-09-15T15:01:15.632Z,23.54
2022-09-15T15:03:49.747Z,23.40
2022-09-15T15:06:42.720Z,23.23
2022-09-15T15:09:21.487Z,23.15
2022-09-15T15:11:53.032Z,23.06
2022-09-15T15:14:20.624Z,23.04
2022-09-15T15:16:53.815Z,22.94
2022-09-15T15:19:30.782Z,22.97
2022-09-15T15:22:21.364Z,22.87
2022-09-15T15:24:51.115Z,22.91
2022-09-15T15:27:33.251Z,22.93
2022-09-15T15:30:30.594Z,22.88
2022-09-15T15:33:17.410Z,22.88
2022-09-15T15:35:48.502Z,22.92
2022-09-15T15:38:18.433Z,22.89
2022-09-15T15:40:46.841Z,22.90
2022-09-15T15:43:13.987Z,22.91
2022-09-15T15:45:51.117Z,22.89
2022-09-15T15:48:18.363Z,22.98
2022-09-15T15:50:45.591Z,23.07
2022-09-15T15:53:12.803Z,23.10
2022-09-15T15:55:42.353Z,23.17
2022-09-15T15:58:11.190Z,23.21
2022-09-15T16:00:46.022Z,23.32
2022-09-15T16:03:15.185Z,23.40
2022-09-15T16:05:45.274Z,23.46
2022-09-15T16:08:20.739Z,23.51
2022-09-15T16:10:49.452Z,23.52
2022-09-15T16:13:19.279Z,23.55
2022-09-15T16:15:46.778Z,23.61
2022-09-15T16:18:14.386Z,23.63
2022-09-15T16:20:42.093Z,23.61
2022-09-15T16:23:20.985Z,23.59
2022-09-15T16:25:57.643Z,23.59
2022-09-15T16:28:24.986Z,23.54
2022-09-15T16:30:52.240Z,23.56
2022-09-15T16:33:19.878Z,23.53
2022-09-15T16:35:55.056Z,23.54
2022-09-15T16:38:25.952Z,23.54
2022-09-15T16:40:53.267Z,23.51
2022-09-15T16:43:23.364Z,23.47
2022-09-15T16:45:52.024Z,23.37
2022-09-15T16:48:19.227Z,23.37
2022-09-15T16:51:16.076Z,23.33
2022-09-15T16:53:34.865Z,23.30
2022-09-15T16:56:02.547Z,23.31
2022-09-15T16:58:29.792Z,23.34
2022-09-15T17:00:58.711Z,23.32
2022-09-15T17:03:27.523Z,23.30
2022-09-15T17:05:57.423Z,23.23
2022-09-15T17:08:34.811Z,23.18
2022-09-15T17:11:04.631Z,23.12
2022-09-15T17:13:33.975Z,23.07
2022-09-15T17:16:02.170Z,23.02
2022-09-15T17:18:30.258Z,22.94
2022-09-15T17:20:57.867Z,22.89
2022-09-15T17:23:27.658Z,22.83
2022-09-15T17:25:58.965Z,22.77
2022-09-15T17:28:31.113Z,22.75
2022-09-15T17:31:03.948Z,22.73
2022-09-15T17:33:32.470Z,22.66
2022-09-15T17:36:00.052Z,22.67
2022-09-15T17:38:27.533Z,22.63
2022-09-15T17:40:57.750Z,22.60
2022-09-15T17:43:28.812Z,22.53
2022-09-15T17:45:56.482Z,22.45
2022-09-15T17:48:24.669Z,22.32
2022-09-15T17:50:52.330Z,22.29
2022-09-15T17:53:28.216Z,22.22
2022-09-15T17:55:56.092Z,22.22
2022-09-15T17:58:26.656Z,22.19
2022-09-15T18:00:54.159Z,22.11
2022-09-15T18:03:33.257Z,22.08
2022-09-15T18:06:04.315Z,22.00
2022-09-15T18:08:33.154Z,21.96
2022-09-15T18:11:00.762Z,21.91
2022-09-15T18:13:29.740Z,21.87
2022-09-15T18:15:57.920Z,21.83
2022-09-15T18:18:27.549Z,21.80
2022-09-15T18:20:57.862Z,21.72
2022-09-15T18:23:26.863Z,21.71
2022-09-15T18:25:54.034Z,21.60
2022-09-15T18:28:21.341Z,21.59
2022-09-15T18:30:49.866Z,21.59
2022-09-15T18:33:25.013Z,21.56
2022-09-15T18:35:58.829Z,21.54
2022-09-15T18:38:27.121Z,21.48
2022-09-15T18:40:56.383Z,21.51
2022-09-15T18:43:26.320Z,21.48
2022-09-15T18:45:58.839Z,21.48
2022-09-15T18:48:26.127Z,21.44
2022-09-15T18:50:53.464Z,21.37
2022-09-15T18:53:20.743Z,21.32
2022-09-15T18:55:47.939Z,21.28
2022-09-15T18:58:15.131Z,21.22
2022-09-15T19:00:45.351Z,21.23
2022-09-15T19:03:14.074Z,21.24
2022-09-15T19:05:41.916Z,21.20
2022-09-15T19:08:09.274Z,21.19
2022-09-15T19:10:39.715Z,21.16
2022-09-15T19:13:06.950Z,21.15
2022-09-15T19:15:34.623Z,21.09
2022-09-15T19:18:02.127Z,21.06
2022-09-15T19:20:30.084Z,21.05
2022-09-15T19:22:57.925Z,20.98
2022-09-15T19:25:25.160Z,20.95
2022-09-15T19:27:52.354Z,20.93
2022-09-15T19:30:19.670Z,20.88
2022-09-15T19:32:46.898Z,20.93
2022-09-15T19:35:14.161Z,20.95
2022-09-15T19:37:42.271Z,20.92
2022-09-15T19:40:11.933Z,20.90
2022-09-15T19:42:40.378Z,20.94
2022-09-15T19:45:09.727Z,20.92
2022-09-15T19:47:37.636Z,20.91
2022-09-15T19:50:06.795Z,20.88
2022-09-15T19:52:33.995Z,20.86
2022-09-15T19:55:01.258Z,20.75
2022-09-15T19:57:28.542Z,20.68
2022-09-15T19:59:55.739Z,20.61
2022-09-15T20:02:23.086Z,20.52
2022-09-15T20:04:50.388Z,20.47
2022-09-15T20:07:17.555Z,20.45
2022-09-15T20:09:44.853Z,20.48
2022-09-15T20:12:12.096Z,20.51
2022-09-15T20:14:40.435Z,20.56
2022-09-15T20:17:07.687Z,20.61
2022-09-15T20:19:35.764Z,20.61
2022-09-15T20:22:04.297Z,20.56
2022-09-15T20:24:31.591Z,20.56
2022-09-15T20:26:59.263Z,20.63
2022-09-15T20:29:26.509Z,20.68
2022-09-15T20:31:53.955Z,20.72
2022-09-15T20:34:21.176Z,20.67
2022-09-15T20:36:48.912Z,20.65
2022-09-15T20:39:16.247Z,20.66
2022-09-15T20:41:46.558Z,20.66
2022-09-15T20:44:14.610Z,20.60
2022-09-15T20:46:42.622Z,20.47
2022-09-15T20:49:11.004Z,20.41
2022-09-15T20:51:38.216Z,20.38
2022-09-15T20:54:05.677Z,20.42
2022-09-15T20:56:35.075Z,20.38
2022-09-15T20:59:03.666Z,20.39
2022-09-15T21:01:38.939Z,20.40
2022-09-15T21:04:08.197Z,20.36
2022-09-15T21:06:36.376Z,20.36
2022-09-15T21:09:05.073Z,20.32
2022-09-15T21:11:32.770Z,20.33
2022-09-15T21:14:00.876Z,20.40
2022-09-15T21:16:29.118Z,20.43
2022-09-15T21:18:57.875Z,20.49
2022-09-15T21:21:30.207Z,20.55
2022-09-15T21:24:01.765Z,20.62
2022-09-15T21:26:31.799Z,20.68
2022-09-15T21:28:59.192Z,20.77
2022-09-15T21:31:29.284Z,20.84
2022-09-15T21:33:58.028Z,20.84
2022-09-15T21:36:29.988Z,20.83
2022-09-15T21:38:58.784Z,20.75
2022-09-15T21:41:31.545Z,20.54
2022-09-15T21:43:59.342Z,20.58
2022-09-15T21:46:29.745Z,20.51
2022-09-15T21:48:58.827Z,20.49
2022-09-15T21:51:28.664Z,20.47
2022-09-15T21:53:57.776Z,20.40
2022-09-15T21:56:26.368Z,20.40
2022-09-15T21:58:54.332Z,20.39
2022-09-15T22:01:26.260Z,20.41
2022-09-15T22:03:57.502Z,20.37
2022-09-15T22:06:29.142Z,20.34
2022-09-15T22:08:56.466Z,20.38
2022-09-15T22:11:24.261Z,20.40
2022-09-15T22:13:51.632Z,20.38
2022-09-15T22:16:24.062Z,20.36
2022-09-15T22:18:52.145Z,20.33
2022-09-15T22:21:29.015Z,20.39
2022-09-15T22:23:58.384Z,20.28
2022-09-15T22:26:28.362Z,20.17
2022-09-15T22:28:56.782Z,20.15
2022-09-15T22:31:24.450Z,20.11
2022-09-15T22:33:52.669Z,20.10
2022-09-15T22:36:29.308Z,20.05
2022-09-15T22:39:04.144Z,20.04
2022-09-15T22:41:36.263Z,20.02
2022-09-15T22:44:04.446Z,19.98
2022-09-15T22:46:32.400Z,19.95
2022-09-15T22:49:00.092Z,19.91
2022-09-15T22:51:27.306Z,19.91
2022-09-15T22:53:56.683Z,19.85
2022-09-15T22:56:26.091Z,19.82
2022-09-15T22:58:54.562Z,19.83
2022-09-15T23:01:24.944Z,19.82
2022-09-15T23:03:54.089Z,19.73
2022-09-15T23:06:22.828Z,19.69
2022-09-15T23:08:56.291Z,19.69
2022-09-15T23:11:24.950Z,19.64
2022-09-15T23:13:53.308Z,19.63
2022-09-15T23:16:22.316Z,19.66
2022-09-15T23:18:51.017Z,19.67
2022-09-15T23:21:18.394Z,19.66
2022-09-15T23:23:48.789Z,19.66
2022-09-15T23:26:18.596Z,19.56
2022-09-15T23:28:46.645Z,19.48
2022-09-15T23:31:14.085Z,19.50
2022-09-15T23:33:42.047Z,19.45
2022-09-15T23:36:12.666Z,19.46
2022-09-15T23:38:41.397Z,19.39
2022-09-15T23:41:10.367Z,19.33
2022-09-15T23:43:37.613Z,19.36
2022-09-15T23:46:05.171Z,19.41
2022-09-15T23:48:32.591Z,19.39
2022-09-15T23:51:00.579Z,19.33
2022-09-15T23:53:28.351Z,19.40
2022-09-15T23:55:55.610Z,19.39
2022-09-15T23:58:22.834Z,19.40
